Weather at Kopaida Dimitra Airfield

Public forecast

Using degrees Celsius for public forecast. Weather courtesy of forecast.io.

Closest aviation weather report (METAR) to Kopaida Dimitra Airfield

Closest report is Tanagra Air Base, 21.4 nm (39.7 km) ESE. Retrieved 2021/04/12 22:50 UTC (14 minutes ago):

LGTG 122250Z 00000KT CAVOK 06/03 Q1020 BLU

Closest aviation forecast (TAF) to Kopaida Dimitra Airfield

Closest forecast is Elefsis Airport, 30.8 nm (57.1 km) SE. Retrieved 2021/04/12 18:00 UTC (5 hours ago):

TAF LGEL 121700Z 1218/1318 VRB05KT 9999 FEW020 TEMPO 1220/1304 34005KT BECMG 1304/1306 18010KT